sensor_id;sensor_type;location;lat;lon;timestamp;temperature;humidity
38265;DHT22;24062;47.480;8.768;2023-05-02T00:02:04;10.10;98.60
38265;DHT22;24062;47.480;8.768;2023-05-02T00:04:31;10.10;98.90
38265;DHT22;24062;47.480;8.768;2023-05-02T00:06:58;10.20;98.90
38265;DHT22;24062;47.480;8.768;2023-05-02T00:09:25;10.10;98.80
38265;DHT22;24062;47.480;8.768;2023-05-02T00:11:53;10.20;98.70
38265;DHT22;24062;47.480;8.768;2023-05-02T00:14:20;10.10;98.80
38265;DHT22;24062;47.480;8.768;2023-05-02T00:16:47;10.00;99.00
38265;DHT22;24062;47.480;8.768;2023-05-02T00:19:14;10.00;99.20
38265;DHT22;24062;47.480;8.768;2023-05-02T00:21:41;9.90;99.80
38265;DHT22;24062;47.480;8.768;2023-05-02T00:24:08;10.00;99.40
38265;DHT22;24062;47.480;8.768;2023-05-02T00:26:35;9.90;99.70
38265;DHT22;24062;47.480;8.768;2023-05-02T00:29:03;9.90;99.80
38265;DHT22;24062;47.480;8.768;2023-05-02T00:31:30;9.80;99.80
38265;DHT22;24062;47.480;8.768;2023-05-02T00:33:57;9.80;99.90
38265;DHT22;24062;47.480;8.768;2023-05-02T00:36:24;9.80;99.90
38265;DHT22;24062;47.480;8.768;2023-05-02T00:38:52;9.70;99.90
38265;DHT22;24062;47.480;8.768;2023-05-02T00:41:18;9.70;99.90
38265;DHT22;24062;47.480;8.768;2023-05-02T00:43:45;9.80;99.90
38265;DHT22;24062;47.480;8.768;2023-05-02T00:46:14;9.90;99.90
38265;DHT22;24062;47.480;8.768;2023-05-02T00:48:41;9.90;99.90
38265;DHT22;24062;47.480;8.768;2023-05-02T00:51:09;9.90;99.90
38265;DHT22;24062;47.480;8.768;2023-05-02T00:53:38;9.90;99.90
38265;DHT22;24062;47.480;8.768;2023-05-02T00:56:06;10.00;99.90
38265;DHT22;24062;47.480;8.768;2023-05-02T00:58:33;10.10;99.90
38265;DHT22;24062;47.480;8.768;2023-05-02T01:01:07;10.00;99.90
38265;DHT22;24062;47.480;8.768;2023-05-02T01:03:45;10.10;99.90
38265;DHT22;24062;47.480;8.768;2023-05-02T01:06:27;10.00;99.80
38265;DHT22;24062;47.480;8.768;2023-05-02T01:09:06;10.00;99.90
38265;DHT22;24062;47.480;8.768;2023-05-02T01:11:43;10.00;99.90
38265;DHT22;24062;47.480;8.768;2023-05-02T01:14:14;10.00;99.90
38265;DHT22;24062;47.480;8.768;2023-05-02T01:16:42;10.00;99.90
38265;DHT22;24062;47.480;8.768;2023-05-02T01:19:21;10.00;99.90
38265;DHT22;24062;47.480;8.768;2023-05-02T01:21:51;10.00;99.90
38265;DHT22;24062;47.480;8.768;2023-05-02T01:24:25;10.00;99.90
38265;DHT22;24062;47.480;8.768;2023-05-02T01:26:59;10.10;99.90
38265;DHT22;24062;47.480;8.768;2023-05-02T01:29:29;10.10;99.90
38265;DHT22;24062;47.480;8.768;2023-05-02T01:31:57;10.20;99.90
38265;DHT22;24062;47.480;8.768;2023-05-02T01:34:27;10.10;99.90
38265;DHT22;24062;47.480;8.768;2023-05-02T01:36:56;10.10;99.90
38265;DHT22;24062;47.480;8.768;2023-05-02T01:39:25;10.10;99.90
38265;DHT22;24062;47.480;8.768;2023-05-02T01:41:55;10.10;99.90
38265;DHT22;24062;47.480;8.768;2023-05-02T01:44:23;10.00;99.90
38265;DHT22;24062;47.480;8.768;2023-05-02T01:46:54;9.90;99.90
38265;DHT22;24062;47.480;8.768;2023-05-02T01:49:23;9.90;99.90
38265;DHT22;24062;47.480;8.768;2023-05-02T01:51:52;9.80;99.90
38265;DHT22;24062;47.480;8.768;2023-05-02T01:54:21;9.80;99.90
38265;DHT22;24062;47.480;8.768;2023-05-02T01:56:49;9.70;99.90
38265;DHT22;24062;47.480;8.768;2023-05-02T01:59:19;9.60;99.90
38265;DHT22;24062;47.480;8.768;2023-05-02T02:01:49;9.60;99.90
38265;DHT22;24062;47.480;8.768;2023-05-02T02:04:19;9.60;99.90
38265;DHT22;24062;47.480;8.768;2023-05-02T02:06:56;9.50;99.90
38265;DHT22;24062;47.480;8.768;2023-05-02T02:09:23;9.60;99.90
38265;DHT22;24062;47.480;8.768;2023-05-02T02:11:58;9.60;99.90
38265;DHT22;24062;47.480;8.768;2023-05-02T02:14:33;9.60;99.90
38265;DHT22;24062;47.480;8.768;2023-05-02T02:17:01;9.70;99.90
38265;DHT22;24062;47.480;8.768;2023-05-02T02:19:31;9.80;99.90
38265;DHT22;24062;47.480;8.768;2023-05-02T02:21:59;9.80;99.90
38265;DHT22;24062;47.480;8.768;2023-05-02T02:24:29;9.80;99.90
38265;DHT22;24062;47.480;8.768;2023-05-02T02:26:56;9.90;99.90
38265;DHT22;24062;47.480;8.768;2023-05-02T02:29:23;9.90;99.90
38265;DHT22;24062;47.480;8.768;2023-05-02T02:31:50;9.80;99.90
38265;DHT22;24062;47.480;8.768;2023-05-02T02:34:17;9.80;99.90
38265;DHT22;24062;47.480;8.768;2023-05-02T02:36:49;9.80;99.90
38265;DHT22;24062;47.480;8.768;2023-05-02T02:39:27;9.90;99.90
38265;DHT22;24062;47.480;8.768;2023-05-02T02:42:03;9.90;99.90
38265;DHT22;24062;47.480;8.768;2023-05-02T02:44:40;9.90;99.90
38265;DHT22;24062;47.480;8.768;2023-05-02T02:47:12;9.90;99.90
38265;DHT22;24062;47.480;8.768;2023-05-02T02:49:49;9.80;99.90
38265;DHT22;24062;47.480;8.768;2023-05-02T02:52:23;9.90;99.90
38265;DHT22;24062;47.480;8.768;2023-05-02T02:54:54;9.90;99.90
38265;DHT22;24062;47.480;8.768;2023-05-02T02:57:27;9.80;99.90
38265;DHT22;24062;47.480;8.768;2023-05-02T03:00:01;9.90;99.90
38265;DHT22;24062;47.480;8.768;2023-05-02T03:02:33;10.00;99.90
38265;DHT22;24062;47.480;8.768;2023-05-02T03:05:02;10.00;99.90
38265;DHT22;24062;47.480;8.768;2023-05-02T03:07:31;9.90;99.90
38265;DHT22;24062;47.480;8.768;2023-05-02T03:10:02;9.80;99.90
38265;DHT22;24062;47.480;8.768;2023-05-02T03:12:29;9.80;99.90
38265;DHT22;24062;47.480;8.768;2023-05-02T03:15:02;9.70;99.90
38265;DHT22;24062;47.480;8.768;2023-05-02T03:17:30;9.70;99.90
38265;DHT22;24062;47.480;8.768;2023-05-02T03:19:57;9.80;99.90
38265;DHT22;24062;47.480;8.768;2023-05-02T03:22:24;9.80;99.90
38265;DHT22;24062;47.480;8.768;2023-05-02T03:24:52;9.90;99.90
38265;DHT22;24062;47.480;8.768;2023-05-02T03:27:19;10.00;99.90
38265;DHT22;24062;47.480;8.768;2023-05-02T03:29:46;10.00;99.90
38265;DHT22;24062;47.480;8.768;2023-05-02T03:32:13;10.10;99.90
38265;DHT22;24062;47.480;8.768;2023-05-02T03:34:41;10.00;99.90
38265;DHT22;24062;47.480;8.768;2023-05-02T03:37:08;9.90;99.90
38265;DHT22;24062;47.480;8.768;2023-05-02T03:39:34;9.80;99.90
38265;DHT22;24062;47.480;8.768;2023-05-02T03:42:03;9.80;99.90
38265;DHT22;24062;47.480;8.768;2023-05-02T03:44:30;9.80;99.90
38265;DHT22;24062;47.480;8.768;2023-05-02T03:46:57;9.90;99.90
38265;DHT22;24062;47.480;8.768;2023-05-02T03:49:24;9.90;99.90
38265;DHT22;24062;47.480;8.768;2023-05-02T03:51:51;10.00;99.90
38265;DHT22;24062;47.480;8.768;2023-05-02T03:54:18;10.00;99.90
38265;DHT22;24062;47.480;8.768;2023-05-02T03:56:45;9.90;99.90
38265;DHT22;24062;47.480;8.768;2023-05-02T03:59:14;9.80;99.90
38265;DHT22;24062;47.480;8.768;2023-05-02T04:01:41;9.80;99.90
38265;DHT22;24062;47.480;8.768;2023-05-02T04:04:08;9.80;99.90
38265;DHT22;24062;47.480;8.768;2023-05-02T04:06:35;9.80;99.90
38265;DHT22;24062;47.480;8.768;2023-05-02T04:09:02;9.70;99.90
38265;DHT22;24062;47.480;8.768;2023-05-02T04:11:30;9.70;99.90
38265;DHT22;24062;47.480;8.768;2023-05-02T04:13:57;9.70;99.90
38265;DHT22;24062;47.480;8.768;2023-05-02T04:16:25;9.80;99.90
38265;DHT22;24062;47.480;8.768;2023-05-02T04:18:52;9.90;99.90
38265;DHT22;24062;47.480;8.768;2023-05-02T04:21:19;9.90;99.90
38265;DHT22;24062;47.480;8.768;2023-05-02T04:23:46;10.00;99.90
38265;DHT22;24062;47.480;8.768;2023-05-02T04:26:14;10.00;99.90
38265;DHT22;24062;47.480;8.768;2023-05-02T04:28:41;10.10;99.90
38265;DHT22;24062;47.480;8.768;2023-05-02T04:31:08;10.10;99.90
38265;DHT22;24062;47.480;8.768;2023-05-02T04:33:36;10.10;99.90
38265;DHT22;24062;47.480;8.768;2023-05-02T04:36:03;10.10;99.90
38265;DHT22;24062;47.480;8.768;2023-05-02T04:38:30;10.10;99.90
38265;DHT22;24062;47.480;8.768;2023-05-02T04:40:57;10.10;99.90
38265;DHT22;24062;47.480;8.768;2023-05-02T04:43:24;10.10;99.90
38265;DHT22;24062;47.480;8.768;2023-05-02T04:45:51;10.10;99.90
38265;DHT22;24062;47.480;8.768;2023-05-02T04:48:18;10.10;99.90
38265;DHT22;24062;47.480;8.768;2023-05-02T04:50:48;10.10;99.90
38265;DHT22;24062;47.480;8.768;2023-05-02T04:53:15;10.10;99.90
38265;DHT22;24062;47.480;8.768;2023-05-02T04:55:42;10.10;99.90
38265;DHT22;24062;47.480;8.768;2023-05-02T04:58:09;10.10;99.90
38265;DHT22;24062;47.480;8.768;2023-05-02T05:00:36;10.10;99.90
38265;DHT22;24062;47.480;8.768;2023-05-02T05:03:03;10.10;99.90
38265;DHT22;24062;47.480;8.768;2023-05-02T05:05:31;10.10;99.90
38265;DHT22;24062;47.480;8.768;2023-05-02T05:07:59;10.00;99.90
38265;DHT22;24062;47.480;8.768;2023-05-02T05:10:26;10.00;99.90
38265;DHT22;24062;47.480;8.768;2023-05-02T05:12:53;9.90;99.90
38265;DHT22;24062;47.480;8.768;2023-05-02T05:15:20;9.90;99.90
38265;DHT22;24062;47.480;8.768;2023-05-02T05:17:48;9.70;99.90
38265;DHT22;24062;47.480;8.768;2023-05-02T05:20:15;9.60;99.90
38265;DHT22;24062;47.480;8.768;2023-05-02T05:22:42;9.50;99.90
38265;DHT22;24062;47.480;8.768;2023-05-02T05:25:11;9.50;99.90
38265;DHT22;24062;47.480;8.768;2023-05-02T05:27:38;9.50;99.90
38265;DHT22;24062;47.480;8.768;2023-05-02T05:30:06;9.50;99.90
38265;DHT22;24062;47.480;8.768;2023-05-02T05:32:34;9.60;99.90
38265;DHT22;24062;47.480;8.768;2023-05-02T05:35:01;9.80;99.90
38265;DHT22;24062;47.480;8.768;2023-05-02T05:37:29;9.90;99.90
38265;DHT22;24062;47.480;8.768;2023-05-02T05:39:55;10.00;99.90
38265;DHT22;24062;47.480;8.768;2023-05-02T05:42:24;10.20;99.90
38265;DHT22;24062;47.480;8.768;2023-05-02T05:44:51;10.30;99.90
38265;DHT22;24062;47.480;8.768;2023-05-02T05:47:19;10.50;99.90
38265;DHT22;24062;47.480;8.768;2023-05-02T05:49:46;10.60;99.90
38265;DHT22;24062;47.480;8.768;2023-05-02T05:52:13;10.60;99.90
38265;DHT22;24062;47.480;8.768;2023-05-02T05:54:40;10.60;99.90
38265;DHT22;24062;47.480;8.768;2023-05-02T05:57:07;10.70;99.90
38265;DHT22;24062;47.480;8.768;2023-05-02T05:59:35;10.90;99.90
38265;DHT22;24062;47.480;8.768;2023-05-02T06:02:02;10.90;99.90
38265;DHT22;24062;47.480;8.768;2023-05-02T06:04:30;11.00;99.90
38265;DHT22;24062;47.480;8.768;2023-05-02T06:06:57;11.10;99.90
38265;DHT22;24062;47.480;8.768;2023-05-02T06:09:24;11.20;99.90
38265;DHT22;24062;47.480;8.768;2023-05-02T06:11:50;11.30;99.90
38265;DHT22;24062;47.480;8.768;2023-05-02T06:14:17;11.50;99.90
38265;DHT22;24062;47.480;8.768;2023-05-02T06:16:46;11.60;99.90
38265;DHT22;24062;47.480;8.768;2023-05-02T06:19:12;11.70;99.90
38265;DHT22;24062;47.480;8.768;2023-05-02T06:21:40;11.80;99.90
38265;DHT22;24062;47.480;8.768;2023-05-02T06:24:07;11.90;99.90
38265;DHT22;24062;47.480;8.768;2023-05-02T06:26:34;11.90;99.90
38265;DHT22;24062;47.480;8.768;2023-05-02T06:29:01;12.00;99.90
38265;DHT22;24062;47.480;8.768;2023-05-02T06:31:28;12.10;99.90
38265;DHT22;24062;47.480;8.768;2023-05-02T06:33:56;12.20;99.90
38265;DHT22;24062;47.480;8.768;2023-05-02T06:36:23;12.30;99.90
38265;DHT22;24062;47.480;8.768;2023-05-02T06:38:50;12.20;99.90
38265;DHT22;24062;47.480;8.768;2023-05-02T06:41:17;12.00;99.90
38265;DHT22;24062;47.480;8.768;2023-05-02T06:43:45;11.90;99.90
38265;DHT22;24062;47.480;8.768;2023-05-02T06:46:12;11.80;99.90
38265;DHT22;24062;47.480;8.768;2023-05-02T06:48:39;11.70;99.90
38265;DHT22;24062;47.480;8.768;2023-05-02T06:51:07;11.60;99.90
38265;DHT22;24062;47.480;8.768;2023-05-02T06:53:34;11.60;99.90
38265;DHT22;24062;47.480;8.768;2023-05-02T06:56:01;11.60;99.90
38265;DHT22;24062;47.480;8.768;2023-05-02T06:58:30;11.60;99.90
38265;DHT22;24062;47.480;8.768;2023-05-02T07:00:56;11.50;99.90
38265;DHT22;24062;47.480;8.768;2023-05-02T07:03:23;11.60;99.90
38265;DHT22;24062;47.480;8.768;2023-05-02T07:05:51;11.80;99.90
38265;DHT22;24062;47.480;8.768;2023-05-02T07:08:19;11.90;99.90
38265;DHT22;24062;47.480;8.768;2023-05-02T07:10:47;12.10;99.90
38265;DHT22;24062;47.480;8.768;2023-05-02T07:13:14;12.40;99.90
38265;DHT22;24062;47.480;8.768;2023-05-02T07:15:41;12.70;99.90
38265;DHT22;24062;47.480;8.768;2023-05-02T07:18:08;13.00;99.90
38265;DHT22;24062;47.480;8.768;2023-05-02T07:20:35;13.30;99.90
38265;DHT22;24062;47.480;8.768;2023-05-02T07:23:03;13.50;99.90
38265;DHT22;24062;47.480;8.768;2023-05-02T07:25:31;13.80;99.90
38265;DHT22;24062;47.480;8.768;2023-05-02T07:27:58;14.00;99.90
38265;DHT22;24062;47.480;8.768;2023-05-02T07:30:25;14.10;99.90
38265;DHT22;24062;47.480;8.768;2023-05-02T07:32:52;14.10;99.90
38265;DHT22;24062;47.480;8.768;2023-05-02T07:35:19;14.20;99.90
38265;DHT22;24062;47.480;8.768;2023-05-02T07:37:46;14.40;99.90
38265;DHT22;24062;47.480;8.768;2023-05-02T07:40:13;14.50;99.10
38265;DHT22;24062;47.480;8.768;2023-05-02T07:42:42;14.50;99.40
38265;DHT22;24062;47.480;8.768;2023-05-02T07:45:09;14.60;99.10
38265;DHT22;24062;47.480;8.768;2023-05-02T07:47:36;14.80;99.10
38265;DHT22;24062;47.480;8.768;2023-05-02T07:50:03;14.80;98.50
38265;DHT22;24062;47.480;8.768;2023-05-02T07:52:31;14.90;98.60
38265;DHT22;24062;47.480;8.768;2023-05-02T07:54:57;14.90;98.10
38265;DHT22;24062;47.480;8.768;2023-05-02T07:57:25;15.10;98.30
38265;DHT22;24062;47.480;8.768;2023-05-02T07:59:53;15.20;97.20
38265;DHT22;24062;47.480;8.768;2023-05-02T08:02:21;15.20;97.10
38265;DHT22;24062;47.480;8.768;2023-05-02T08:04:49;15.40;97.70
38265;DHT22;24062;47.480;8.768;2023-05-02T08:07:16;15.70;97.30
38265;DHT22;24062;47.480;8.768;2023-05-02T08:09:43;15.80;95.10
38265;DHT22;24062;47.480;8.768;2023-05-02T08:12:10;15.80;95.10
38265;DHT22;24062;47.480;8.768;2023-05-02T08:14:37;15.80;95.00
38265;DHT22;24062;47.480;8.768;2023-05-02T08:17:05;16.00;95.40
38265;DHT22;24062;47.480;8.768;2023-05-02T08:19:32;16.20;94.90
38265;DHT22;24062;47.480;8.768;2023-05-02T08:21:59;16.40;94.60
38265;DHT22;24062;47.480;8.768;2023-05-02T08:24:26;16.50;94.20
38265;DHT22;24062;47.480;8.768;2023-05-02T08:26:52;16.60;92.80
38265;DHT22;24062;47.480;8.768;2023-05-02T08:29:19;16.60;93.30
38265;DHT22;24062;47.480;8.768;2023-05-02T08:31:46;16.70;92.70
38265;DHT22;24062;47.480;8.768;2023-05-02T08:34:15;16.80;92.30
38265;DHT22;24062;47.480;8.768;2023-05-02T08:36:41;16.70;91.30
38265;DHT22;24062;47.480;8.768;2023-05-02T08:39:08;16.80;91.80
38265;DHT22;24062;47.480;8.768;2023-05-02T08:41:36;16.90;90.80
38265;DHT22;24062;47.480;8.768;2023-05-02T08:44:05;16.90;90.40
38265;DHT22;24062;47.480;8.768;2023-05-02T08:46:34;17.00;90.60
38265;DHT22;24062;47.480;8.768;2023-05-02T08:49:02;17.20;90.70
38265;DHT22;24062;47.480;8.768;2023-05-02T08:51:30;17.40;89.80
38265;DHT22;24062;47.480;8.768;2023-05-02T08:53:59;17.40;88.20
38265;DHT22;24062;47.480;8.768;2023-05-02T08:56:27;17.60;90.10
38265;DHT22;24062;47.480;8.768;2023-05-02T08:58:54;17.90;87.70
38265;DHT22;24062;47.480;8.768;2023-05-02T09:01:22;18.10;86.70
38265;DHT22;24062;47.480;8.768;2023-05-02T09:03:49;18.30;87.10
38265;DHT22;24062;47.480;8.768;2023-05-02T09:06:18;18.40;84.00
38265;DHT22;24062;47.480;8.768;2023-05-02T09:08:48;18.40;83.00
38265;DHT22;24062;47.480;8.768;2023-05-02T09:11:17;18.30;82.40
38265;DHT22;24062;47.480;8.768;2023-05-02T09:13:45;18.30;82.10
38265;DHT22;24062;47.480;8.768;2023-05-02T09:16:14;18.40;81.50
38265;DHT22;24062;47.480;8.768;2023-05-02T09:18:42;18.40;80.10
38265;DHT22;24062;47.480;8.768;2023-05-02T09:21:12;18.30;75.60
38265;DHT22;24062;47.480;8.768;2023-05-02T09:23:40;18.00;78.50
38265;DHT22;24062;47.480;8.768;2023-05-02T09:26:16;18.10;80.10
38265;DHT22;24062;47.480;8.768;2023-05-02T09:28:44;18.30;79.20
38265;DHT22;24062;47.480;8.768;2023-05-02T09:31:13;18.60;79.20
38265;DHT22;24062;47.480;8.768;2023-05-02T09:33:40;18.70;77.50
38265;DHT22;24062;47.480;8.768;2023-05-02T09:36:10;18.70;77.00
38265;DHT22;24062;47.480;8.768;2023-05-02T09:38:38;18.70;77.00
38265;DHT22;24062;47.480;8.768;2023-05-02T09:41:05;18.80;73.90
38265;DHT22;24062;47.480;8.768;2023-05-02T09:43:34;18.70;75.20
38265;DHT22;24062;47.480;8.768;2023-05-02T09:46:02;18.70;75.30
38265;DHT22;24062;47.480;8.768;2023-05-02T09:48:31;18.60;74.50
38265;DHT22;24062;47.480;8.768;2023-05-02T09:50:58;18.60;73.60
38265;DHT22;24062;47.480;8.768;2023-05-02T09:53:26;18.50;73.10
38265;DHT22;24062;47.480;8.768;2023-05-02T09:55:59;18.60;71.30
38265;DHT22;24062;47.480;8.768;2023-05-02T09:58:27;18.20;69.40
38265;DHT22;24062;47.480;8.768;2023-05-02T10:00:57;18.10;72.00
38265;DHT22;24062;47.480;8.768;2023-05-02T10:03:25;18.30;72.60
38265;DHT22;24062;47.480;8.768;2023-05-02T10:05:53;18.60;72.00
38265;DHT22;24062;47.480;8.768;2023-05-02T10:08:24;18.70;71.70
38265;DHT22;24062;47.480;8.768;2023-05-02T10:10:53;18.80;71.80
38265;DHT22;24062;47.480;8.768;2023-05-02T10:13:21;18.80;70.10
38265;DHT22;24062;47.480;8.768;2023-05-02T10:15:55;18.70;69.50
38265;DHT22;24062;47.480;8.768;2023-05-02T10:18:37;18.70;71.00
38265;DHT22;24062;47.480;8.768;2023-05-02T10:21:09;18.70;69.20
38265;DHT22;24062;47.480;8.768;2023-05-02T10:23:40;18.70;69.70
38265;DHT22;24062;47.480;8.768;2023-05-02T10:26:07;18.70;70.20
38265;DHT22;24062;47.480;8.768;2023-05-02T10:28:35;18.90;69.80
38265;DHT22;24062;47.480;8.768;2023-05-02T10:31:04;19.00;69.40
38265;DHT22;24062;47.480;8.768;2023-05-02T10:33:34;19.10;69.30
38265;DHT22;24062;47.480;8.768;2023-05-02T10:36:02;19.20;67.60
38265;DHT22;24062;47.480;8.768;2023-05-02T10:38:29;19.30;68.70
38265;DHT22;24062;47.480;8.768;2023-05-02T10:41:00;19.50;68.70
38265;DHT22;24062;47.480;8.768;2023-05-02T10:43:31;19.60;67.40
38265;DHT22;24062;47.480;8.768;2023-05-02T10:45:59;19.70;67.40
38265;DHT22;24062;47.480;8.768;2023-05-02T10:48:28;20.10;67.50
38265;DHT22;24062;47.480;8.768;2023-05-02T10:50:58;20.40;67.90
38265;DHT22;24062;47.480;8.768;2023-05-02T10:53:31;20.50;65.90
38265;DHT22;24062;47.480;8.768;2023-05-02T10:56:17;20.50;65.10
38265;DHT22;24062;47.480;8.768;2023-05-02T10:58:47;20.40;64.60
38265;DHT22;24062;47.480;8.768;2023-05-02T11:01:33;20.40;64.40
38265;DHT22;24062;47.480;8.768;2023-05-02T11:04:03;20.50;63.00
38265;DHT22;24062;47.480;8.768;2023-05-02T11:06:33;20.40;64.00
38265;DHT22;24062;47.480;8.768;2023-05-02T11:09:29;20.60;64.70
38265;DHT22;24062;47.480;8.768;2023-05-02T11:11:56;20.70;63.70
38265;DHT22;24062;47.480;8.768;2023-05-02T11:14:43;20.40;61.80
38265;DHT22;24062;47.480;8.768;2023-05-02T11:17:11;20.10;61.60
38265;DHT22;24062;47.480;8.768;2023-05-02T11:23:18;19.90;63.10
38265;DHT22;24062;47.480;8.768;2023-05-02T11:25:48;20.00;62.90
38265;DHT22;24062;47.480;8.768;2023-05-02T11:28:41;20.20;60.00
38265;DHT22;24062;47.480;8.768;2023-05-02T11:34:08;19.60;61.40
38265;DHT22;24062;47.480;8.768;2023-05-02T11:36:35;19.70;60.20
38265;DHT22;24062;47.480;8.768;2023-05-02T11:39:04;19.80;61.20
38265;DHT22;24062;47.480;8.768;2023-05-02T11:41:40;20.00;62.00
38265;DHT22;24062;47.480;8.768;2023-05-02T11:44:07;20.40;62.00
38265;DHT22;24062;47.480;8.768;2023-05-02T11:46:36;20.80;61.60
38265;DHT22;24062;47.480;8.768;2023-05-02T11:49:03;21.30;62.10
38265;DHT22;24062;47.480;8.768;2023-05-02T11:51:30;21.60;59.20
38265;DHT22;24062;47.480;8.768;2023-05-02T11:53:57;21.50;58.60
38265;DHT22;24062;47.480;8.768;2023-05-02T11:56:26;21.40;59.30
38265;DHT22;24062;47.480;8.768;2023-05-02T11:58:57;21.20;58.80
38265;DHT22;24062;47.480;8.768;2023-05-02T12:01:25;20.80;58.40
38265;DHT22;24062;47.480;8.768;2023-05-02T12:04:01;20.50;58.40
38265;DHT22;24062;47.480;8.768;2023-05-02T12:06:28;20.20;58.30
38265;DHT22;24062;47.480;8.768;2023-05-02T12:09:06;20.20;58.70
38265;DHT22;24062;47.480;8.768;2023-05-02T12:11:35;20.40;59.00
38265;DHT22;24062;47.480;8.768;2023-05-02T12:14:03;20.60;58.90
38265;DHT22;24062;47.480;8.768;2023-05-02T12:16:30;20.80;59.10
38265;DHT22;24062;47.480;8.768;2023-05-02T12:18:57;20.90;57.90
38265;DHT22;24062;47.480;8.768;2023-05-02T12:21:26;21.10;58.30
38265;DHT22;24062;47.480;8.768;2023-05-02T12:23:54;21.30;57.40
38265;DHT22;24062;47.480;8.768;2023-05-02T12:26:23;21.10;56.00
38265;DHT22;24062;47.480;8.768;2023-05-02T12:28:55;20.70;56.70
38265;DHT22;24062;47.480;8.768;2023-05-02T12:31:23;20.40;56.90
38265;DHT22;24062;47.480;8.768;2023-05-02T12:33:50;20.00;56.40
38265;DHT22;24062;47.480;8.768;2023-05-02T12:36:19;19.50;57.40
38265;DHT22;24062;47.480;8.768;2023-05-02T12:38:50;19.10;59.20
38265;DHT22;24062;47.480;8.768;2023-05-02T12:41:32;18.60;60.30
38265;DHT22;24062;47.480;8.768;2023-05-02T12:44:00;18.00;62.00
38265;DHT22;24062;47.480;8.768;2023-05-02T12:46:28;17.60;62.50
38265;DHT22;24062;47.480;8.768;2023-05-02T12:49:02;17.40;62.90
38265;DHT22;24062;47.480;8.768;2023-05-02T12:51:29;17.20;63.10
38265;DHT22;24062;47.480;8.768;2023-05-02T12:53:57;17.10;63.60
38265;DHT22;24062;47.480;8.768;2023-05-02T12:56:24;17.10;64.10
38265;DHT22;24062;47.480;8.768;2023-05-02T12:58:56;17.10;64.50
38265;DHT22;24062;47.480;8.768;2023-05-02T13:01:26;17.20;64.40
38265;DHT22;24062;47.480;8.768;2023-05-02T13:03:54;17.20;64.40
38265;DHT22;24062;47.480;8.768;2023-05-02T13:06:21;17.20;64.80
38265;DHT22;24062;47.480;8.768;2023-05-02T13:08:47;17.50;65.80
38265;DHT22;24062;47.480;8.768;2023-05-02T13:11:14;17.70;66.00
38265;DHT22;24062;47.480;8.768;2023-05-02T13:13:42;18.20;65.80
38265;DHT22;24062;47.480;8.768;2023-05-02T13:16:09;18.50;65.10
38265;DHT22;24062;47.480;8.768;2023-05-02T13:18:37;18.80;65.00
38265;DHT22;24062;47.480;8.768;2023-05-02T13:21:04;19.20;65.50
38265;DHT22;24062;47.480;8.768;2023-05-02T13:23:31;19.80;65.70
38265;DHT22;24062;47.480;8.768;2023-05-02T13:25:58;20.30;64.20
38265;DHT22;24062;47.480;8.768;2023-05-02T13:28:25;21.00;64.70
38265;DHT22;24062;47.480;8.768;2023-05-02T13:30:54;21.80;64.10
38265;DHT22;24062;47.480;8.768;2023-05-02T13:33:21;22.60;61.90
38265;DHT22;24062;47.480;8.768;2023-05-02T13:35:50;23.30;61.60
38265;DHT22;24062;47.480;8.768;2023-05-02T13:38:16;24.30;61.30
38265;DHT22;24062;47.480;8.768;2023-05-02T13:40:44;25.00;59.50
38265;DHT22;24062;47.480;8.768;2023-05-02T13:43:10;25.80;58.40
38265;DHT22;24062;47.480;8.768;2023-05-02T13:45:37;26.50;56.80
38265;DHT22;24062;47.480;8.768;2023-05-02T13:48:05;27.00;55.20
38265;DHT22;24062;47.480;8.768;2023-05-02T13:50:32;27.60;54.30
38265;DHT22;24062;47.480;8.768;2023-05-02T13:53:03;27.50;50.50
38265;DHT22;24062;47.480;8.768;2023-05-02T13:55:30;27.30;50.30
38265;DHT22;24062;47.480;8.768;2023-05-02T13:57:57;26.90;48.90
38265;DHT22;24062;47.480;8.768;2023-05-02T14:00:23;26.30;49.30
38265;DHT22;24062;47.480;8.768;2023-05-02T14:02:53;26.00;49.00
38265;DHT22;24062;47.480;8.768;2023-05-02T14:05:20;25.60;49.20
38265;DHT22;24062;47.480;8.768;2023-05-02T14:07:47;25.20;49.00
38265;DHT22;24062;47.480;8.768;2023-05-02T14:10:15;24.70;48.70
38265;DHT22;24062;47.480;8.768;2023-05-02T14:12:42;24.20;48.50
38265;DHT22;24062;47.480;8.768;2023-05-02T14:15:10;23.90;48.80
38265;DHT22;24062;47.480;8.768;2023-05-02T14:17:37;24.20;49.20
38265;DHT22;24062;47.480;8.768;2023-05-02T14:20:05;26.10;51.50
38265;DHT22;24062;47.480;8.768;2023-05-02T14:22:32;27.10;48.60
38265;DHT22;24062;47.480;8.768;2023-05-02T14:24:59;27.20;47.20
38265;DHT22;24062;47.480;8.768;2023-05-02T14:27:27;26.90;46.80
38265;DHT22;24062;47.480;8.768;2023-05-02T14:29:54;26.50;46.10
38265;DHT22;24062;47.480;8.768;2023-05-02T14:32:21;28.80;50.40
38265;DHT22;24062;47.480;8.768;2023-05-02T14:34:48;29.60;46.80
38265;DHT22;24062;47.480;8.768;2023-05-02T14:37:15;31.30;47.40
38265;DHT22;24062;47.480;8.768;2023-05-02T14:39:42;34.80;49.20
38265;DHT22;24062;47.480;8.768;2023-05-02T14:42:10;38.10;47.40
38265;DHT22;24062;47.480;8.768;2023-05-02T14:44:38;40.50;44.30
38265;DHT22;24062;47.480;8.768;2023-05-02T14:47:06;41.90;42.20
38265;DHT22;24062;47.480;8.768;2023-05-02T14:49:33;43.40;40.30
38265;DHT22;24062;47.480;8.768;2023-05-02T14:52:00;43.30;36.90
38265;DHT22;24062;47.480;8.768;2023-05-02T14:54:27;42.50;35.20
38265;DHT22;24062;47.480;8.768;2023-05-02T14:56:55;43.60;35.60
38265;DHT22;24062;47.480;8.768;2023-05-02T14:59:22;42.60;32.00
38265;DHT22;24062;47.480;8.768;2023-05-02T15:01:51;41.90;32.00
38265;DHT22;24062;47.480;8.768;2023-05-02T15:04:18;41.00;31.00
38265;DHT22;24062;47.480;8.768;2023-05-02T15:06:45;41.40;32.10
38265;DHT22;24062;47.480;8.768;2023-05-02T15:09:13;42.40;29.70
38265;DHT22;24062;47.480;8.768;2023-05-02T15:11:40;43.10;30.60
38265;DHT22;24062;47.480;8.768;2023-05-02T15:14:07;43.90;30.30
38265;DHT22;24062;47.480;8.768;2023-05-02T15:16:34;44.50;29.10
38265;DHT22;24062;47.480;8.768;2023-05-02T15:19:05;45.10;29.20
38265;DHT22;24062;47.480;8.768;2023-05-02T15:21:31;45.00;27.90
38265;DHT22;24062;47.480;8.768;2023-05-02T15:23:59;44.90;28.10
38265;DHT22;24062;47.480;8.768;2023-05-02T15:26:27;44.60;27.30
38265;DHT22;24062;47.480;8.768;2023-05-02T15:28:54;44.50;27.30
38265;DHT22;24062;47.480;8.768;2023-05-02T15:31:21;44.30;26.80
38265;DHT22;24062;47.480;8.768;2023-05-02T15:33:48;44.10;27.10
38265;DHT22;24062;47.480;8.768;2023-05-02T15:36:17;44.50;27.40
38265;DHT22;24062;47.480;8.768;2023-05-02T15:38:44;45.40;27.50
38265;DHT22;24062;47.480;8.768;2023-05-02T15:41:11;45.50;26.80
38265;DHT22;24062;47.480;8.768;2023-05-02T15:43:38;45.40;26.80
38265;DHT22;24062;47.480;8.768;2023-05-02T15:46:05;44.60;26.60
38265;DHT22;24062;47.480;8.768;2023-05-02T15:48:32;44.20;25.90
38265;DHT22;24062;47.480;8.768;2023-05-02T15:50:59;43.60;26.50